Météo Nord-Pas-de-Calais   La météo au plus près de chez vous

Station météorologique

Observations météo à Tregunc (29293)

29293001 25 m Dernier relevé à 06:30
14.5°C
Humidité 93 % Vent 4.3 km/h

Journée consultée

Samedi 5 Septembre 2026

Synthèse de la journée

Périodes de référence en UTC

Température maximale

23.5°C

à 19:06

06h 06h

Température minimale

14.5°C

à 05:54

18h 18h

Rafale maximale

10 km/h

à 02:06

00h 00h

Précipitations

0 mm

Cumul quotidien

06h 06h

Graphiques de la journée

Heure locale Réduire

Données détaillées

Relevés météo

Pas de 6 minutes Afficher les relevés infra-horaires
Relevés météo détaillés à Tregunc pour le Samedi 5 Septembre 2026
Heure Température °C Point de rosée °C Humidité % Vent moyen (raf.), km/h Précipitations mm
06:30 14.5 °C 13.4 °C 93 % 5 km/h (8 km/h) 0 mm0 mm
06:24 14.6 °C 13.5 °C 93 % 5 km/h (8 km/h) 0 mm0 mm
06:18 14.6 °C 13.5 °C 93 % 4 km/h (6 km/h) 0 mm0 mm
06:12 14.7 °C 13.6 °C 93 % 4 km/h (5 km/h) 0 mm0 mm
06:06 14.7 °C 13.6 °C 93 % 4 km/h (7 km/h) 0 mm0 mm
06:00 14.6 °C 13.5 °C 93 % 3 km/h (7 km/h) 0 mm0 mm
05:54 14.5 °C 13.4 °C 93 % 3 km/h (5 km/h) 0 mm0 mm
05:48 14.7 °C 13.6 °C 93 % 3 km/h (6 km/h) 0 mm0 mm
05:42 14.8 °C 13.7 °C 93 % 5 km/h (8 km/h) 0 mm0 mm
05:36 14.8 °C 13.7 °C 93 % 5 km/h (7 km/h) 0 mm0 mm
05:30 14.8 °C 13.7 °C 93 % 4 km/h (6 km/h) 0 mm0 mm
05:24 14.8 °C 13.7 °C 93 % 5 km/h (6 km/h) 0 mm0 mm
05:18 14.8 °C 13.7 °C 93 % 5 km/h (6 km/h) 0 mm0 mm
05:12 14.8 °C 13.7 °C 93 % 5 km/h (6 km/h) 0 mm0 mm
05:06 14.7 °C 13.4 °C 92 % 5 km/h (6 km/h) 0 mm0 mm
05:00 14.9 °C 13.8 °C 93 % 5 km/h (6 km/h) 0 mm0 mm
04:54 14.9 °C 13.8 °C 93 % 5 km/h (7 km/h) 0 mm0 mm
04:48 14.9 °C 13.6 °C 92 % 6 km/h (8 km/h) 0 mm0 mm
04:42 15 °C 13.7 °C 92 % 6 km/h (8 km/h) 0 mm0 mm
04:36 15 °C 13.9 °C 93 % 6 km/h (8 km/h) 0 mm0 mm
04:30 15 °C 13.9 °C 93 % 5 km/h (8 km/h) 0 mm0 mm
04:24 15 °C 13.9 °C 93 % 4 km/h (6 km/h) 0 mm0 mm
04:18 15 °C 14 °C 94 % 5 km/h (6 km/h) 0 mm0 mm
04:12 14.9 °C 13.9 °C 94 % 4 km/h (6 km/h) 0 mm0 mm
04:06 14.7 °C 13.6 °C 93 % 2 km/h (4 km/h) 0 mm0 mm
04:00 14.7 °C 13.6 °C 93 % 0 km/h (5 km/h) 0 mm0 mm
03:54 14.7 °C 13.4 °C 92 % 3 km/h (6 km/h) 0 mm0 mm
03:48 15 °C 13.7 °C 92 % 3 km/h (6 km/h) 0 mm0 mm
03:42 15.1 °C 13.6 °C 91 % 0 km/h (3 km/h) 0 mm0 mm
03:36 15.2 °C 13.6 °C 90 % 0 km/h (3 km/h) 0 mm0 mm
03:30 15.3 °C 13.7 °C 90 % 0 km/h (2 km/h) 0 mm0 mm
03:24 15.5 °C 13.9 °C 90 % 0 km/h (0 km/h) 0 mm0 mm
03:18 15.5 °C 13.7 °C 89 % 0 km/h (0 km/h) 0 mm0 mm
03:12 15.6 °C 13.8 °C 89 % 0 km/h (0 km/h) 0 mm0 mm
03:06 15.7 °C 13.7 °C 88 % 0 km/h (0 km/h) 0 mm0 mm
03:00 15.8 °C 13.6 °C 87 % 0 km/h (0 km/h) 0 mm0 mm
02:54 15.9 °C 13.7 °C 87 % 0 km/h (0 km/h) 0 mm0 mm
02:48 16.1 °C 13.9 °C 87 % 0 km/h (0 km/h) 0 mm0 mm
02:42 16.2 °C 13.9 °C 86 % 0 km/h (4 km/h) 0 mm0 mm
02:36 16.5 °C 13.8 °C 84 % 2 km/h (4 km/h) 0 mm0 mm
02:30 16.7 °C 13.8 °C 83 % 3 km/h (6 km/h) 0 mm0 mm
02:24 16.8 °C 13.9 °C 83 % 4 km/h (9 km/h) 0 mm0 mm
02:18 16.8 °C 13.9 °C 83 % 4 km/h (9 km/h) 0 mm0 mm
02:12 16.9 °C 13.8 °C 82 % 4 km/h (9 km/h) 0 mm0 mm
02:06 17 °C 13.9 °C 82 % 5 km/h (10 km/h) 0 mm0 mm
02:00 17.1 °C 14 °C 82 % 5 km/h (10 km/h) 0 mm0 mm
01:54 17.1 °C 14 °C 82 % 6 km/h (12 km/h) 0 mm0 mm
01:48 17.1 °C 14.2 °C 83 % 7 km/h (14 km/h) 0 mm0 mm
01:42 17.2 °C 14.5 °C 84 % 8 km/h (14 km/h) 0 mm0 mm
01:36 17.2 °C 14.7 °C 85 % 7 km/h (12 km/h) 0 mm0 mm
01:30 17.3 °C 14.8 °C 85 % 8 km/h (12 km/h) 0 mm0 mm
01:24 17.3 °C 14.8 °C 85 % 9 km/h (13 km/h) 0 mm0 mm
01:18 17.4 °C 14.9 °C 85 % 9 km/h (14 km/h) 0 mm0 mm
01:12 17.4 °C 14.9 °C 85 % 8 km/h (14 km/h) 0 mm0 mm
01:06 17.5 °C 14.9 °C 85 % 8 km/h (13 km/h) 0 mm0 mm
01:00 17.6 °C 15 °C 85 % 9 km/h (14 km/h) 0 mm0 mm
00:54 17.6 °C 15 °C 85 % 9 km/h (14 km/h) 0 mm0 mm
00:48 17.7 °C 15 °C 84 % 7 km/h (12 km/h) 0 mm0 mm
00:42 17.7 °C 15 °C 84 % 6 km/h (11 km/h) 0 mm0 mm
00:36 17.8 °C 15.1 °C 84 % 6 km/h (10 km/h) 0 mm0 mm
00:30 17.8 °C 15.1 °C 84 % 5 km/h (10 km/h) 0 mm0 mm
00:24 17.9 °C 15.2 °C 84 % 5 km/h (9 km/h) 0 mm0 mm
00:18 18 °C 15.1 °C 83 % 5 km/h (10 km/h) 0 mm0 mm
00:12 18.1 °C 15.2 °C 83 % 6 km/h (10 km/h) 0 mm0 mm
00:06 18.2 °C 15.1 °C 82 % 5 km/h (10 km/h) 0 mm0 mm
00:00 18.2 °C 15.1 °C 82 % 6 km/h (10 km/h) 0 mm0 mm

Données via Météo-France

Relevés météo à Tregunc

Cette page rassemble les observations de la station de Tregunc : température, humidité, vent, précipitations et pression atmosphérique. Les graphiques facilitent le suivi de la journée, tandis que le tableau donne accès aux mesures horaires et infra-horaires disponibles.

Pour replacer ces mesures dans leur contexte, consultez la climatologie de Tregunc ainsi que ses normales et records. Retrouvez aussi la carte des observations météo en temps réel.